sensor_id;sensor_type;location;lat;lon;timestamp;P1;durP1;ratioP1;P2;durP2;ratioP2
5085;SDS011;4715;51.660;7.082;2023-07-31T00:01:41;1.87;;;1.60;;
5085;SDS011;4715;51.660;7.082;2023-07-31T00:04:03;1.40;;;1.30;;
5085;SDS011;4715;51.660;7.082;2023-07-31T00:06:25;1.27;;;1.17;;
5085;SDS011;4715;51.660;7.082;2023-07-31T00:08:48;1.50;;;1.40;;
5085;SDS011;4715;51.660;7.082;2023-07-31T00:11:10;1.40;;;1.30;;
5085;SDS011;4715;51.660;7.082;2023-07-31T00:13:32;2.70;;;1.27;;
5085;SDS011;4715;51.660;7.082;2023-07-31T00:15:53;4.70;;;1.57;;
5085;SDS011;4715;51.660;7.082;2023-07-31T00:18:15;1.10;;;1.00;;
5085;SDS011;4715;51.660;7.082;2023-07-31T00:20:37;1.47;;;1.37;;
5085;SDS011;4715;51.660;7.082;2023-07-31T00:22:59;1.70;;;1.60;;
5085;SDS011;4715;51.660;7.082;2023-07-31T00:25:22;1.70;;;1.60;;
5085;SDS011;4715;51.660;7.082;2023-07-31T00:27:44;0.93;;;0.93;;
5085;SDS011;4715;51.660;7.082;2023-07-31T00:30:06;1.50;;;1.40;;
5085;SDS011;4715;51.660;7.082;2023-07-31T00:32:28;1.20;;;1.00;;
5085;SDS011;4715;51.660;7.082;2023-07-31T00:34:50;1.40;;;1.30;;
5085;SDS011;4715;51.660;7.082;2023-07-31T00:37:12;1.43;;;1.33;;
5085;SDS011;4715;51.660;7.082;2023-07-31T00:39:35;2.07;;;1.40;;
5085;SDS011;4715;51.660;7.082;2023-07-31T00:41:58;2.40;;;2.13;;
5085;SDS011;4715;51.660;7.082;2023-07-31T00:44:20;2.40;;;2.30;;
5085;SDS011;4715;51.660;7.082;2023-07-31T00:46:42;2.33;;;2.23;;
5085;SDS011;4715;51.660;7.082;2023-07-31T00:49:04;3.30;;;3.00;;
5085;SDS011;4715;51.660;7.082;2023-07-31T00:51:26;3.93;;;3.33;;
5085;SDS011;4715;51.660;7.082;2023-07-31T00:53:47;5.70;;;3.73;;
5085;SDS011;4715;51.660;7.082;2023-07-31T00:56:09;5.43;;;3.47;;
5085;SDS011;4715;51.660;7.082;2023-07-31T00:58:33;4.90;;;4.10;;
5085;SDS011;4715;51.660;7.082;2023-07-31T01:00:55;6.37;;;5.10;;
5085;SDS011;4715;51.660;7.082;2023-07-31T01:03:17;7.50;;;4.73;;
5085;SDS011;4715;51.660;7.082;2023-07-31T01:05:39;8.37;;;5.00;;
5085;SDS011;4715;51.660;7.082;2023-07-31T01:08:08;10.40;;;4.70;;
5085;SDS011;4715;51.660;7.082;2023-07-31T01:10:37;5.07;;;4.37;;
5085;SDS011;4715;51.660;7.082;2023-07-31T01:13:07;10.57;;;5.13;;
5085;SDS011;4715;51.660;7.082;2023-07-31T01:15:32;9.57;;;4.97;;
5085;SDS011;4715;51.660;7.082;2023-07-31T01:17:53;11.03;;;6.43;;
5085;SDS011;4715;51.660;7.082;2023-07-31T01:20:17;15.83;;;7.20;;
5085;SDS011;4715;51.660;7.082;2023-07-31T01:22:53;12.03;;;5.20;;
5085;SDS011;4715;51.660;7.082;2023-07-31T01:28:09;6.93;;;5.47;;
5085;SDS011;4715;51.660;7.082;2023-07-31T01:30:37;13.67;;;5.70;;
5085;SDS011;4715;51.660;7.082;2023-07-31T01:33:02;10.93;;;5.70;;
5085;SDS011;4715;51.660;7.082;2023-07-31T01:35:27;11.73;;;5.93;;
5085;SDS011;4715;51.660;7.082;2023-07-31T01:37:49;11.37;;;5.20;;
5085;SDS011;4715;51.660;7.082;2023-07-31T01:40:14;10.33;;;6.23;;
5085;SDS011;4715;51.660;7.082;2023-07-31T01:42:37;9.40;;;4.80;;
5085;SDS011;4715;51.660;7.082;2023-07-31T01:44:58;10.10;;;5.03;;
5085;SDS011;4715;51.660;7.082;2023-07-31T01:47:20;12.80;;;5.30;;
5085;SDS011;4715;51.660;7.082;2023-07-31T01:49:43;9.13;;;4.90;;
5085;SDS011;4715;51.660;7.082;2023-07-31T01:52:05;13.20;;;6.40;;
5085;SDS011;4715;51.660;7.082;2023-07-31T01:54:27;10.80;;;5.10;;
5085;SDS011;4715;51.660;7.082;2023-07-31T01:56:49;11.13;;;4.90;;
5085;SDS011;4715;51.660;7.082;2023-07-31T01:59:12;9.30;;;4.27;;
5085;SDS011;4715;51.660;7.082;2023-07-31T02:01:34;14.33;;;5.20;;
5085;SDS011;4715;51.660;7.082;2023-07-31T02:03:56;11.70;;;5.23;;
5085;SDS011;4715;51.660;7.082;2023-07-31T02:06:18;9.80;;;4.97;;
5085;SDS011;4715;51.660;7.082;2023-07-31T02:08:39;15.47;;;4.97;;
5085;SDS011;4715;51.660;7.082;2023-07-31T02:11:01;6.63;;;4.10;;
5085;SDS011;4715;51.660;7.082;2023-07-31T02:13:23;10.97;;;4.77;;
5085;SDS011;4715;51.660;7.082;2023-07-31T02:15:46;12.27;;;5.13;;
5085;SDS011;4715;51.660;7.082;2023-07-31T02:18:09;11.00;;;4.70;;
5085;SDS011;4715;51.660;7.082;2023-07-31T02:20:33;9.73;;;4.80;;
5085;SDS011;4715;51.660;7.082;2023-07-31T02:22:56;11.47;;;5.77;;
5085;SDS011;4715;51.660;7.082;2023-07-31T02:25:20;9.87;;;5.40;;
5085;SDS011;4715;51.660;7.082;2023-07-31T02:27:42;11.50;;;4.70;;
5085;SDS011;4715;51.660;7.082;2023-07-31T02:30:04;12.27;;;5.50;;
5085;SDS011;4715;51.660;7.082;2023-07-31T02:32:28;8.03;;;4.10;;
5085;SDS011;4715;51.660;7.082;2023-07-31T02:34:50;9.47;;;4.90;;
5085;SDS011;4715;51.660;7.082;2023-07-31T02:37:12;9.60;;;4.83;;
5085;SDS011;4715;51.660;7.082;2023-07-31T02:39:34;8.00;;;4.40;;
5085;SDS011;4715;51.660;7.082;2023-07-31T02:41:56;8.80;;;4.43;;
5085;SDS011;4715;51.660;7.082;2023-07-31T02:44:17;9.30;;;4.63;;
5085;SDS011;4715;51.660;7.082;2023-07-31T02:46:40;7.80;;;3.73;;
5085;SDS011;4715;51.660;7.082;2023-07-31T02:49:03;8.80;;;4.50;;
5085;SDS011;4715;51.660;7.082;2023-07-31T02:51:25;7.47;;;4.17;;
5085;SDS011;4715;51.660;7.082;2023-07-31T02:53:47;13.00;;;4.80;;
5085;SDS011;4715;51.660;7.082;2023-07-31T02:56:09;15.93;;;4.93;;
5085;SDS011;4715;51.660;7.082;2023-07-31T02:58:31;9.97;;;4.20;;
5085;SDS011;4715;51.660;7.082;2023-07-31T03:00:53;10.07;;;4.33;;
5085;SDS011;4715;51.660;7.082;2023-07-31T03:03:15;12.90;;;5.23;;
5085;SDS011;4715;51.660;7.082;2023-07-31T03:05:38;7.87;;;4.23;;
5085;SDS011;4715;51.660;7.082;2023-07-31T03:08:00;10.83;;;5.80;;
5085;SDS011;4715;51.660;7.082;2023-07-31T03:10:23;7.77;;;4.07;;
5085;SDS011;4715;51.660;7.082;2023-07-31T03:12:46;14.27;;;4.97;;
5085;SDS011;4715;51.660;7.082;2023-07-31T03:15:08;10.37;;;4.70;;
5085;SDS011;4715;51.660;7.082;2023-07-31T03:17:30;8.43;;;5.17;;
5085;SDS011;4715;51.660;7.082;2023-07-31T03:19:52;10.30;;;5.20;;
5085;SDS011;4715;51.660;7.082;2023-07-31T03:22:15;13.43;;;5.17;;
5085;SDS011;4715;51.660;7.082;2023-07-31T03:24:37;7.90;;;4.00;;
5085;SDS011;4715;51.660;7.082;2023-07-31T03:26:59;9.50;;;4.50;;
5085;SDS011;4715;51.660;7.082;2023-07-31T03:29:21;9.93;;;4.70;;
5085;SDS011;4715;51.660;7.082;2023-07-31T03:31:43;5.97;;;4.13;;
5085;SDS011;4715;51.660;7.082;2023-07-31T03:34:05;10.70;;;5.03;;
5085;SDS011;4715;51.660;7.082;2023-07-31T03:36:26;12.63;;;5.33;;
5085;SDS011;4715;51.660;7.082;2023-07-31T03:38:50;10.40;;;5.20;;
5085;SDS011;4715;51.660;7.082;2023-07-31T03:41:13;10.40;;;4.73;;
5085;SDS011;4715;51.660;7.082;2023-07-31T03:43:35;10.70;;;4.37;;
5085;SDS011;4715;51.660;7.082;2023-07-31T03:45:57;7.87;;;4.77;;
5085;SDS011;4715;51.660;7.082;2023-07-31T03:48:19;8.20;;;4.50;;
5085;SDS011;4715;51.660;7.082;2023-07-31T03:50:41;18.93;;;4.33;;
5085;SDS011;4715;51.660;7.082;2023-07-31T03:53:03;5.80;;;4.87;;
5085;SDS011;4715;51.660;7.082;2023-07-31T03:55:26;8.00;;;4.33;;
5085;SDS011;4715;51.660;7.082;2023-07-31T03:57:48;11.90;;;5.20;;
5085;SDS011;4715;51.660;7.082;2023-07-31T04:00:10;7.13;;;5.00;;
5085;SDS011;4715;51.660;7.082;2023-07-31T04:02:32;10.23;;;5.03;;
5085;SDS011;4715;51.660;7.082;2023-07-31T04:04:54;9.87;;;4.80;;
5085;SDS011;4715;51.660;7.082;2023-07-31T04:07:16;8.87;;;4.80;;
5085;SDS011;4715;51.660;7.082;2023-07-31T04:09:38;10.83;;;4.37;;
5085;SDS011;4715;51.660;7.082;2023-07-31T04:12:01;12.73;;;4.83;;
5085;SDS011;4715;51.660;7.082;2023-07-31T04:14:23;10.00;;;4.90;;
5085;SDS011;4715;51.660;7.082;2023-07-31T04:16:45;16.17;;;6.10;;
5085;SDS011;4715;51.660;7.082;2023-07-31T04:19:07;9.63;;;4.53;;
5085;SDS011;4715;51.660;7.082;2023-07-31T04:21:30;12.30;;;4.67;;
5085;SDS011;4715;51.660;7.082;2023-07-31T04:23:52;8.00;;;4.10;;
5085;SDS011;4715;51.660;7.082;2023-07-31T04:26:16;10.30;;;4.83;;
5085;SDS011;4715;51.660;7.082;2023-07-31T04:28:39;11.63;;;4.90;;
5085;SDS011;4715;51.660;7.082;2023-07-31T04:31:01;9.43;;;4.60;;
5085;SDS011;4715;51.660;7.082;2023-07-31T04:33:22;16.73;;;4.77;;
5085;SDS011;4715;51.660;7.082;2023-07-31T04:35:48;11.73;;;4.83;;
5085;SDS011;4715;51.660;7.082;2023-07-31T04:38:12;8.70;;;4.97;;
5085;SDS011;4715;51.660;7.082;2023-07-31T04:40:34;17.63;;;6.43;;
5085;SDS011;4715;51.660;7.082;2023-07-31T04:42:55;10.50;;;4.80;;
5085;SDS011;4715;51.660;7.082;2023-07-31T04:45:19;9.00;;;4.70;;
5085;SDS011;4715;51.660;7.082;2023-07-31T04:47:40;15.00;;;6.03;;
5085;SDS011;4715;51.660;7.082;2023-07-31T04:50:02;11.83;;;4.70;;
5085;SDS011;4715;51.660;7.082;2023-07-31T04:52:24;16.50;;;5.50;;
5085;SDS011;4715;51.660;7.082;2023-07-31T04:54:49;11.67;;;3.90;;
5085;SDS011;4715;51.660;7.082;2023-07-31T04:57:11;8.30;;;4.87;;
5085;SDS011;4715;51.660;7.082;2023-07-31T04:59:33;10.73;;;4.60;;
5085;SDS011;4715;51.660;7.082;2023-07-31T05:01:56;10.50;;;4.33;;
5085;SDS011;4715;51.660;7.082;2023-07-31T05:04:18;6.73;;;4.40;;
5085;SDS011;4715;51.660;7.082;2023-07-31T05:06:40;8.37;;;5.00;;
5085;SDS011;4715;51.660;7.082;2023-07-31T05:09:02;8.93;;;4.20;;
5085;SDS011;4715;51.660;7.082;2023-07-31T05:11:24;13.13;;;5.10;;
5085;SDS011;4715;51.660;7.082;2023-07-31T05:13:46;9.53;;;4.07;;
5085;SDS011;4715;51.660;7.082;2023-07-31T05:16:08;6.93;;;3.93;;
5085;SDS011;4715;51.660;7.082;2023-07-31T05:18:31;12.10;;;4.63;;
5085;SDS011;4715;51.660;7.082;2023-07-31T05:20:53;8.53;;;4.63;;
5085;SDS011;4715;51.660;7.082;2023-07-31T05:23:15;10.20;;;4.30;;
5085;SDS011;4715;51.660;7.082;2023-07-31T05:25:36;8.80;;;4.20;;
5085;SDS011;4715;51.660;7.082;2023-07-31T05:27:58;10.43;;;4.20;;
5085;SDS011;4715;51.660;7.082;2023-07-31T05:30:20;12.67;;;5.00;;
5085;SDS011;4715;51.660;7.082;2023-07-31T05:32:42;8.20;;;4.77;;
5085;SDS011;4715;51.660;7.082;2023-07-31T05:35:05;6.67;;;4.47;;
5085;SDS011;4715;51.660;7.082;2023-07-31T05:37:27;9.23;;;5.10;;
5085;SDS011;4715;51.660;7.082;2023-07-31T05:39:49;7.60;;;4.70;;
5085;SDS011;4715;51.660;7.082;2023-07-31T05:42:12;8.20;;;4.47;;
5085;SDS011;4715;51.660;7.082;2023-07-31T05:44:33;7.90;;;4.67;;
5085;SDS011;4715;51.660;7.082;2023-07-31T05:46:55;6.87;;;4.40;;
5085;SDS011;4715;51.660;7.082;2023-07-31T05:49:17;10.20;;;4.73;;
5085;SDS011;4715;51.660;7.082;2023-07-31T05:51:40;5.87;;;4.23;;
5085;SDS011;4715;51.660;7.082;2023-07-31T05:54:02;15.10;;;4.90;;
5085;SDS011;4715;51.660;7.082;2023-07-31T05:56:24;11.60;;;4.47;;
5085;SDS011;4715;51.660;7.082;2023-07-31T05:58:47;7.53;;;4.10;;
5085;SDS011;4715;51.660;7.082;2023-07-31T06:01:10;6.03;;;4.83;;
5085;SDS011;4715;51.660;7.082;2023-07-31T06:03:32;13.10;;;6.60;;
5085;SDS011;4715;51.660;7.082;2023-07-31T06:05:54;7.40;;;5.00;;
5085;SDS011;4715;51.660;7.082;2023-07-31T06:08:17;7.53;;;5.30;;
5085;SDS011;4715;51.660;7.082;2023-07-31T06:10:39;7.40;;;5.80;;
5085;SDS011;4715;51.660;7.082;2023-07-31T06:13:01;9.73;;;5.60;;
5085;SDS011;4715;51.660;7.082;2023-07-31T06:15:22;9.47;;;5.33;;
5085;SDS011;4715;51.660;7.082;2023-07-31T06:17:44;8.57;;;5.63;;
5085;SDS011;4715;51.660;7.082;2023-07-31T06:20:07;9.27;;;6.00;;
5085;SDS011;4715;51.660;7.082;2023-07-31T06:22:30;9.40;;;5.77;;
5085;SDS011;4715;51.660;7.082;2023-07-31T06:24:54;13.67;;;5.40;;
5085;SDS011;4715;51.660;7.082;2023-07-31T06:27:16;11.30;;;5.60;;
5085;SDS011;4715;51.660;7.082;2023-07-31T06:29:38;9.73;;;5.07;;
5085;SDS011;4715;51.660;7.082;2023-07-31T06:31:59;7.63;;;5.53;;
5085;SDS011;4715;51.660;7.082;2023-07-31T06:34:21;10.40;;;4.83;;
5085;SDS011;4715;51.660;7.082;2023-07-31T06:36:43;7.47;;;4.97;;
5085;SDS011;4715;51.660;7.082;2023-07-31T06:39:05;5.57;;;4.50;;
5085;SDS011;4715;51.660;7.082;2023-07-31T06:41:29;9.50;;;5.30;;
5085;SDS011;4715;51.660;7.082;2023-07-31T06:43:50;7.03;;;5.47;;
5085;SDS011;4715;51.660;7.082;2023-07-31T06:46:12;9.00;;;6.97;;
5085;SDS011;4715;51.660;7.082;2023-07-31T06:48:34;9.13;;;5.80;;
5085;SDS011;4715;51.660;7.082;2023-07-31T06:50:56;11.13;;;5.13;;
5085;SDS011;4715;51.660;7.082;2023-07-31T06:53:18;8.30;;;5.40;;
5085;SDS011;4715;51.660;7.082;2023-07-31T06:55:40;6.50;;;5.57;;
5085;SDS011;4715;51.660;7.082;2023-07-31T06:58:03;6.80;;;5.33;;
5085;SDS011;4715;51.660;7.082;2023-07-31T07:00:25;6.77;;;5.00;;
5085;SDS011;4715;51.660;7.082;2023-07-31T07:02:48;8.80;;;5.60;;
5085;SDS011;4715;51.660;7.082;2023-07-31T07:05:14;9.20;;;5.90;;
5085;SDS011;4715;51.660;7.082;2023-07-31T07:07:39;9.90;;;6.00;;
5085;SDS011;4715;51.660;7.082;2023-07-31T07:10:06;7.93;;;5.43;;
5085;SDS011;4715;51.660;7.082;2023-07-31T07:12:33;7.77;;;5.03;;
5085;SDS011;4715;51.660;7.082;2023-07-31T07:14:57;5.83;;;5.00;;
5085;SDS011;4715;51.660;7.082;2023-07-31T07:17:19;7.60;;;5.00;;
5085;SDS011;4715;51.660;7.082;2023-07-31T07:19:41;13.33;;;5.00;;
5085;SDS011;4715;51.660;7.082;2023-07-31T07:22:03;6.17;;;5.20;;
5085;SDS011;4715;51.660;7.082;2023-07-31T07:24:26;5.80;;;4.70;;
5085;SDS011;4715;51.660;7.082;2023-07-31T07:26:47;5.43;;;4.90;;
5085;SDS011;4715;51.660;7.082;2023-07-31T07:29:09;10.90;;;4.27;;
5085;SDS011;4715;51.660;7.082;2023-07-31T07:31:33;6.57;;;5.17;;
5085;SDS011;4715;51.660;7.082;2023-07-31T07:33:56;7.03;;;5.13;;
5085;SDS011;4715;51.660;7.082;2023-07-31T07:36:18;5.37;;;4.40;;
5085;SDS011;4715;51.660;7.082;2023-07-31T07:38:39;5.37;;;4.87;;
5085;SDS011;4715;51.660;7.082;2023-07-31T07:41:02;4.70;;;4.30;;
5085;SDS011;4715;51.660;7.082;2023-07-31T07:43:25;5.50;;;4.10;;
5085;SDS011;4715;51.660;7.082;2023-07-31T07:45:49;4.60;;;4.03;;
5085;SDS011;4715;51.660;7.082;2023-07-31T07:48:14;8.40;;;4.77;;
5085;SDS011;4715;51.660;7.082;2023-07-31T07:50:39;8.60;;;4.40;;
5085;SDS011;4715;51.660;7.082;2023-07-31T07:53:04;4.50;;;4.10;;
5085;SDS011;4715;51.660;7.082;2023-07-31T07:55:28;6.53;;;4.40;;
5085;SDS011;4715;51.660;7.082;2023-07-31T07:57:50;5.50;;;5.00;;
5085;SDS011;4715;51.660;7.082;2023-07-31T08:00:13;3.57;;;3.27;;
5085;SDS011;4715;51.660;7.082;2023-07-31T08:02:35;4.20;;;3.90;;
5085;SDS011;4715;51.660;7.082;2023-07-31T08:04:58;4.10;;;3.30;;
5085;SDS011;4715;51.660;7.082;2023-07-31T08:07:23;3.87;;;3.57;;
5085;SDS011;4715;51.660;7.082;2023-07-31T08:09:46;4.60;;;4.30;;
5085;SDS011;4715;51.660;7.082;2023-07-31T08:12:08;4.57;;;4.20;;
5085;SDS011;4715;51.660;7.082;2023-07-31T08:14:30;3.30;;;3.03;;
5085;SDS011;4715;51.660;7.082;2023-07-31T08:16:53;4.77;;;3.30;;
5085;SDS011;4715;51.660;7.082;2023-07-31T08:19:16;3.80;;;3.50;;
5085;SDS011;4715;51.660;7.082;2023-07-31T08:21:39;3.30;;;2.80;;
5085;SDS011;4715;51.660;7.082;2023-07-31T08:24:01;4.23;;;2.60;;
5085;SDS011;4715;51.660;7.082;2023-07-31T08:26:31;5.10;;;3.90;;
5085;SDS011;4715;51.660;7.082;2023-07-31T08:28:53;4.30;;;3.50;;
5085;SDS011;4715;51.660;7.082;2023-07-31T08:31:15;5.60;;;3.27;;
5085;SDS011;4715;51.660;7.082;2023-07-31T08:33:38;4.30;;;2.93;;
5085;SDS011;4715;51.660;7.082;2023-07-31T08:36:02;4.47;;;2.70;;
5085;SDS011;4715;51.660;7.082;2023-07-31T08:38:27;4.03;;;2.77;;
5085;SDS011;4715;51.660;7.082;2023-07-31T08:40:49;2.60;;;2.37;;
5085;SDS011;4715;51.660;7.082;2023-07-31T08:43:12;2.23;;;2.07;;
5085;SDS011;4715;51.660;7.082;2023-07-31T08:45:34;3.10;;;2.80;;
5085;SDS011;4715;51.660;7.082;2023-07-31T08:47:56;2.80;;;2.40;;
5085;SDS011;4715;51.660;7.082;2023-07-31T08:50:19;3.10;;;2.90;;
5085;SDS011;4715;51.660;7.082;2023-07-31T08:52:42;4.47;;;4.13;;
5085;SDS011;4715;51.660;7.082;2023-07-31T08:55:06;4.37;;;4.00;;
5085;SDS011;4715;51.660;7.082;2023-07-31T08:57:28;3.63;;;3.37;;
5085;SDS011;4715;51.660;7.082;2023-07-31T08:59:51;4.77;;;4.33;;
5085;SDS011;4715;51.660;7.082;2023-07-31T09:02:14;4.13;;;3.50;;
5085;SDS011;4715;51.660;7.082;2023-07-31T09:04:38;3.40;;;3.20;;
5085;SDS011;4715;51.660;7.082;2023-07-31T09:07:01;7.23;;;4.03;;
5085;SDS011;4715;51.660;7.082;2023-07-31T09:09:24;3.73;;;2.70;;
5085;SDS011;4715;51.660;7.082;2023-07-31T09:11:48;3.87;;;3.57;;
5085;SDS011;4715;51.660;7.082;2023-07-31T09:14:12;3.20;;;3.00;;
5085;SDS011;4715;51.660;7.082;2023-07-31T09:16:35;3.83;;;3.53;;
5085;SDS011;4715;51.660;7.082;2023-07-31T09:19:12;3.57;;;3.27;;
5085;SDS011;4715;51.660;7.082;2023-07-31T09:21:33;3.57;;;3.00;;
5085;SDS011;4715;51.660;7.082;2023-07-31T09:24:08;3.83;;;2.63;;
5085;SDS011;4715;51.660;7.082;2023-07-31T09:26:31;3.53;;;3.13;;
5085;SDS011;4715;51.660;7.082;2023-07-31T09:28:54;3.50;;;3.20;;
5085;SDS011;4715;51.660;7.082;2023-07-31T09:31:15;3.90;;;2.67;;
5085;SDS011;4715;51.660;7.082;2023-07-31T09:33:54;3.80;;;3.40;;
5085;SDS011;4715;51.660;7.082;2023-07-31T09:36:28;3.40;;;3.20;;
5085;SDS011;4715;51.660;7.082;2023-07-31T09:38:51;3.50;;;3.23;;
5085;SDS011;4715;51.660;7.082;2023-07-31T09:41:13;5.70;;;3.30;;
5085;SDS011;4715;51.660;7.082;2023-07-31T09:43:34;3.50;;;3.20;;
5085;SDS011;4715;51.660;7.082;2023-07-31T09:45:57;4.17;;;3.80;;
5085;SDS011;4715;51.660;7.082;2023-07-31T09:48:19;3.50;;;3.20;;
5085;SDS011;4715;51.660;7.082;2023-07-31T09:50:42;7.23;;;3.50;;
5085;SDS011;4715;51.660;7.082;2023-07-31T09:53:05;3.93;;;2.80;;
5085;SDS011;4715;51.660;7.082;2023-07-31T09:55:28;3.90;;;3.50;;
5085;SDS011;4715;51.660;7.082;2023-07-31T09:57:51;3.80;;;3.50;;
5085;SDS011;4715;51.660;7.082;2023-07-31T10:00:17;3.77;;;3.47;;
5085;SDS011;4715;51.660;7.082;2023-07-31T10:02:44;3.77;;;3.47;;
5085;SDS011;4715;51.660;7.082;2023-07-31T10:05:08;4.63;;;3.83;;
5085;SDS011;4715;51.660;7.082;2023-07-31T10:07:30;3.93;;;3.33;;
5085;SDS011;4715;51.660;7.082;2023-07-31T10:09:54;3.90;;;3.23;;
5085;SDS011;4715;51.660;7.082;2023-07-31T10:12:19;3.97;;;3.67;;
5085;SDS011;4715;51.660;7.082;2023-07-31T10:14:43;5.13;;;4.63;;
5085;SDS011;4715;51.660;7.082;2023-07-31T10:17:06;5.37;;;3.80;;
5085;SDS011;4715;51.660;7.082;2023-07-31T10:19:30;3.43;;;3.03;;
5085;SDS011;4715;51.660;7.082;2023-07-31T10:21:53;3.43;;;3.13;;
5085;SDS011;4715;51.660;7.082;2023-07-31T10:24:17;4.00;;;3.70;;
5085;SDS011;4715;51.660;7.082;2023-07-31T10:26:40;3.20;;;3.00;;
5085;SDS011;4715;51.660;7.082;2023-07-31T10:29:06;3.87;;;3.57;;
5085;SDS011;4715;51.660;7.082;2023-07-31T10:31:29;4.00;;;3.70;;
5085;SDS011;4715;51.660;7.082;2023-07-31T10:33:51;3.20;;;3.00;;
5085;SDS011;4715;51.660;7.082;2023-07-31T10:36:15;3.73;;;3.43;;
5085;SDS011;4715;51.660;7.082;2023-07-31T10:38:40;2.97;;;2.77;;
5085;SDS011;4715;51.660;7.082;2023-07-31T10:41:07;3.33;;;3.10;;
5085;SDS011;4715;51.660;7.082;2023-07-31T10:43:29;5.10;;;3.43;;
5085;SDS011;4715;51.660;7.082;2023-07-31T10:45:54;3.97;;;3.67;;
5085;SDS011;4715;51.660;7.082;2023-07-31T10:48:16;5.13;;;4.73;;
5085;SDS011;4715;51.660;7.082;2023-07-31T10:50:38;4.60;;;4.20;;
5085;SDS011;4715;51.660;7.082;2023-07-31T10:53:09;5.90;;;5.30;;
5085;SDS011;4715;51.660;7.082;2023-07-31T10:55:44;4.83;;;4.43;;
5085;SDS011;4715;51.660;7.082;2023-07-31T10:58:07;7.77;;;5.90;;
5085;SDS011;4715;51.660;7.082;2023-07-31T11:00:31;8.50;;;5.53;;
5085;SDS011;4715;51.660;7.082;2023-07-31T11:02:57;5.93;;;5.57;;
5085;SDS011;4715;51.660;7.082;2023-07-31T11:05:23;7.53;;;5.70;;
5085;SDS011;4715;51.660;7.082;2023-07-31T11:08:10;5.37;;;4.93;;
5085;SDS011;4715;51.660;7.082;2023-07-31T11:10:36;5.70;;;5.20;;
5085;SDS011;4715;51.660;7.082;2023-07-31T11:12:59;6.40;;;5.63;;
5085;SDS011;4715;51.660;7.082;2023-07-31T11:15:21;6.10;;;5.47;;
5085;SDS011;4715;51.660;7.082;2023-07-31T11:17:43;5.93;;;5.27;;
5085;SDS011;4715;51.660;7.082;2023-07-31T11:20:07;6.13;;;5.70;;
5085;SDS011;4715;51.660;7.082;2023-07-31T11:22:29;6.40;;;5.07;;
5085;SDS011;4715;51.660;7.082;2023-07-31T11:24:53;6.30;;;4.87;;
5085;SDS011;4715;51.660;7.082;2023-07-31T11:27:14;6.33;;;5.73;;
5085;SDS011;4715;51.660;7.082;2023-07-31T11:29:37;8.27;;;6.53;;
5085;SDS011;4715;51.660;7.082;2023-07-31T11:31:59;4.70;;;4.30;;
5085;SDS011;4715;51.660;7.082;2023-07-31T11:34:21;6.70;;;5.43;;
5085;SDS011;4715;51.660;7.082;2023-07-31T11:36:52;6.60;;;5.57;;
5085;SDS011;4715;51.660;7.082;2023-07-31T11:39:14;5.47;;;5.07;;
5085;SDS011;4715;51.660;7.082;2023-07-31T11:41:38;5.50;;;4.90;;
5085;SDS011;4715;51.660;7.082;2023-07-31T11:44:02;6.03;;;4.43;;
5085;SDS011;4715;51.660;7.082;2023-07-31T11:46:24;5.03;;;4.20;;
5085;SDS011;4715;51.660;7.082;2023-07-31T11:48:46;6.40;;;5.03;;
5085;SDS011;4715;51.660;7.082;2023-07-31T11:51:09;5.33;;;4.80;;
5085;SDS011;4715;51.660;7.082;2023-07-31T11:53:35;4.30;;;4.00;;
5085;SDS011;4715;51.660;7.082;2023-07-31T11:55:59;4.33;;;3.93;;
5085;SDS011;4715;51.660;7.082;2023-07-31T11:58:25;6.73;;;6.13;;
5085;SDS011;4715;51.660;7.082;2023-07-31T12:00:48;4.53;;;3.80;;
5085;SDS011;4715;51.660;7.082;2023-07-31T12:03:10;4.13;;;3.80;;
5085;SDS011;4715;51.660;7.082;2023-07-31T12:05:33;3.93;;;3.70;;
5085;SDS011;4715;51.660;7.082;2023-07-31T12:08:08;3.50;;;3.30;;
5085;SDS011;4715;51.660;7.082;2023-07-31T12:10:31;3.50;;;3.20;;
5085;SDS011;4715;51.660;7.082;2023-07-31T12:13:01;4.83;;;3.83;;
5085;SDS011;4715;51.660;7.082;2023-07-31T12:15:30;4.13;;;3.77;;
5085;SDS011;4715;51.660;7.082;2023-07-31T12:17:57;5.23;;;4.10;;
5085;SDS011;4715;51.660;7.082;2023-07-31T12:20:19;4.30;;;3.90;;
5085;SDS011;4715;51.660;7.082;2023-07-31T12:22:41;4.13;;;3.80;;
5085;SDS011;4715;51.660;7.082;2023-07-31T12:25:05;4.33;;;3.93;;
5085;SDS011;4715;51.660;7.082;2023-07-31T12:27:32;5.23;;;4.80;;
5085;SDS011;4715;51.660;7.082;2023-07-31T12:29:54;5.90;;;5.13;;
5085;SDS011;4715;51.660;7.082;2023-07-31T12:32:21;6.10;;;4.67;;
5085;SDS011;4715;51.660;7.082;2023-07-31T12:34:44;7.87;;;4.80;;
5085;SDS011;4715;51.660;7.082;2023-07-31T12:37:05;4.40;;;4.10;;
5085;SDS011;4715;51.660;7.082;2023-07-31T12:39:27;4.23;;;3.97;;
5085;SDS011;4715;51.660;7.082;2023-07-31T12:41:50;4.90;;;4.23;;
5085;SDS011;4715;51.660;7.082;2023-07-31T12:44:12;5.30;;;4.47;;
5085;SDS011;4715;51.660;7.082;2023-07-31T12:46:34;4.20;;;3.90;;
5085;SDS011;4715;51.660;7.082;2023-07-31T12:48:57;4.03;;;3.73;;
5085;SDS011;4715;51.660;7.082;2023-07-31T12:51:19;4.47;;;4.10;;
5085;SDS011;4715;51.660;7.082;2023-07-31T12:53:42;4.23;;;3.83;;
5085;SDS011;4715;51.660;7.082;2023-07-31T12:56:04;4.07;;;3.70;;
5085;SDS011;4715;51.660;7.082;2023-07-31T12:58:25;4.30;;;3.93;;
5085;SDS011;4715;51.660;7.082;2023-07-31T13:00:47;5.83;;;3.70;;
5085;SDS011;4715;51.660;7.082;2023-07-31T13:03:09;3.60;;;2.90;;
5085;SDS011;4715;51.660;7.082;2023-07-31T13:05:33;3.37;;;3.07;;
5085;SDS011;4715;51.660;7.082;2023-07-31T13:07:55;3.90;;;3.60;;
5085;SDS011;4715;51.660;7.082;2023-07-31T13:10:17;3.17;;;2.87;;
5085;SDS011;4715;51.660;7.082;2023-07-31T13:12:40;3.10;;;2.90;;
5085;SDS011;4715;51.660;7.082;2023-07-31T13:15:02;3.27;;;2.80;;
5085;SDS011;4715;51.660;7.082;2023-07-31T13:17:24;2.97;;;2.77;;
5085;SDS011;4715;51.660;7.082;2023-07-31T13:19:46;3.20;;;3.00;;
5085;SDS011;4715;51.660;7.082;2023-07-31T13:22:10;3.50;;;3.30;;
5085;SDS011;4715;51.660;7.082;2023-07-31T13:24:32;6.20;;;3.23;;
5085;SDS011;4715;51.660;7.082;2023-07-31T13:26:56;3.00;;;2.80;;
5085;SDS011;4715;51.660;7.082;2023-07-31T13:29:20;3.40;;;3.10;;
5085;SDS011;4715;51.660;7.082;2023-07-31T13:31:42;4.37;;;3.70;;
5085;SDS011;4715;51.660;7.082;2023-07-31T13:34:04;4.47;;;3.93;;
5085;SDS011;4715;51.660;7.082;2023-07-31T13:36:27;3.93;;;3.63;;
5085;SDS011;4715;51.660;7.082;2023-07-31T13:38:54;3.47;;;3.27;;
5085;SDS011;4715;51.660;7.082;2023-07-31T13:41:17;4.57;;;3.40;;
5085;SDS011;4715;51.660;7.082;2023-07-31T13:43:38;3.30;;;3.10;;
5085;SDS011;4715;51.660;7.082;2023-07-31T13:46:01;3.90;;;3.57;;
5085;SDS011;4715;51.660;7.082;2023-07-31T13:48:26;4.20;;;3.70;;
5085;SDS011;4715;51.660;7.082;2023-07-31T13:50:48;4.07;;;3.77;;
5085;SDS011;4715;51.660;7.082;2023-07-31T13:53:10;9.00;;;3.27;;
5085;SDS011;4715;51.660;7.082;2023-07-31T13:55:33;3.70;;;3.40;;
5085;SDS011;4715;51.660;7.082;2023-07-31T13:57:55;6.17;;;3.60;;
5085;SDS011;4715;51.660;7.082;2023-07-31T14:00:17;4.43;;;4.10;;
5085;SDS011;4715;51.660;7.082;2023-07-31T14:02:38;4.87;;;4.10;;
5085;SDS011;4715;51.660;7.082;2023-07-31T14:05:01;3.87;;;3.57;;
5085;SDS011;4715;51.660;7.082;2023-07-31T14:07:23;4.53;;;3.90;;
5085;SDS011;4715;51.660;7.082;2023-07-31T14:09:45;4.20;;;3.23;;
5085;SDS011;4715;51.660;7.082;2023-07-31T14:12:09;4.57;;;4.20;;
5085;SDS011;4715;51.660;7.082;2023-07-31T14:14:32;3.97;;;3.70;;
5085;SDS011;4715;51.660;7.082;2023-07-31T14:16:54;4.90;;;4.40;;
5085;SDS011;4715;51.660;7.082;2023-07-31T14:19:16;45.63;;;5.10;;
5085;SDS011;4715;51.660;7.082;2023-07-31T14:21:39;5.50;;;3.50;;
5085;SDS011;4715;51.660;7.082;2023-07-31T14:24:01;4.80;;;4.40;;
5085;SDS011;4715;51.660;7.082;2023-07-31T14:26:24;4.30;;;3.90;;
5085;SDS011;4715;51.660;7.082;2023-07-31T14:28:50;5.07;;;4.03;;
5085;SDS011;4715;51.660;7.082;2023-07-31T14:31:12;5.00;;;4.60;;
5085;SDS011;4715;51.660;7.082;2023-07-31T14:33:34;4.73;;;4.33;;
5085;SDS011;4715;51.660;7.082;2023-07-31T14:35:56;4.07;;;3.77;;
5085;SDS011;4715;51.660;7.082;2023-07-31T14:38:18;5.30;;;4.43;;
5085;SDS011;4715;51.660;7.082;2023-07-31T14:40:42;4.90;;;3.63;;
5085;SDS011;4715;51.660;7.082;2023-07-31T14:43:04;4.50;;;4.20;;
5085;SDS011;4715;51.660;7.082;2023-07-31T14:45:27;4.90;;;4.40;;
5085;SDS011;4715;51.660;7.082;2023-07-31T14:47:49;6.13;;;4.20;;
5085;SDS011;4715;51.660;7.082;2023-07-31T14:50:10;3.83;;;3.10;;